createdAt,value
2018-04-11T00:00:19.019Z,0.00
2018-04-11T00:01:18.938Z,0.00
2018-04-11T00:02:18.863Z,0.00
2018-04-11T00:03:18.785Z,0.00
2018-04-11T00:04:18.713Z,0.00
2018-04-11T00:05:18.640Z,0.00
2018-04-11T00:06:18.559Z,0.00
2018-04-11T00:07:18.485Z,0.00
2018-04-11T00:08:18.402Z,0.00
2018-04-11T00:09:18.326Z,0.00
2018-04-11T00:10:18.250Z,0.00
2018-04-11T00:11:18.194Z,0.00
2018-04-11T00:12:18.119Z,0.00
2018-04-11T00:13:18.023Z,0.00
2018-04-11T00:14:17.950Z,0.00
2018-04-11T00:15:17.877Z,0.00
2018-04-11T00:16:17.794Z,0.00
2018-04-11T00:17:17.715Z,0.00
2018-04-11T00:18:17.642Z,0.00
2018-04-11T00:19:17.563Z,0.00
2018-04-11T00:20:17.487Z,0.00
2018-04-11T00:21:17.413Z,0.00
2018-04-11T00:22:17.336Z,0.00
2018-04-11T00:23:17.261Z,0.00
2018-04-11T00:24:17.181Z,0.00
2018-04-11T00:25:17.106Z,0.00
2018-04-11T00:26:17.028Z,0.00
2018-04-11T00:27:16.955Z,0.00
2018-04-11T00:28:16.875Z,0.00
2018-04-11T00:29:16.802Z,0.00
2018-04-11T00:30:16.720Z,0.00
2018-04-11T00:31:16.642Z,0.00
2018-04-11T00:32:16.566Z,0.00
2018-04-11T00:33:16.487Z,0.00
2018-04-11T00:34:16.426Z,0.00
2018-04-11T00:35:16.333Z,0.00
2018-04-11T00:36:16.259Z,0.00
2018-04-11T00:37:16.180Z,0.00
2018-04-11T00:38:16.100Z,0.00
2018-04-11T00:39:16.038Z,0.00
2018-04-11T00:40:15.950Z,0.00
2018-04-11T00:41:15.877Z,0.00
2018-04-11T00:42:15.796Z,0.00
2018-04-11T00:43:15.716Z,0.00
2018-04-11T00:44:15.644Z,0.00
2018-04-11T00:45:15.569Z,0.00
2018-04-11T00:46:15.488Z,0.00
2018-04-11T00:47:15.410Z,0.00
2018-04-11T00:48:15.336Z,0.00
2018-04-11T00:49:15.257Z,0.00
2018-04-11T00:50:15.191Z,0.00
2018-04-11T00:51:15.106Z,0.00
2018-04-11T00:52:15.031Z,0.00
2018-04-11T00:53:14.950Z,0.00
2018-04-11T00:54:14.874Z,0.00
2018-04-11T00:55:14.796Z,0.00
2018-04-11T00:56:14.738Z,0.00
2018-04-11T00:57:14.640Z,0.00
2018-04-11T00:58:14.565Z,0.00
2018-04-11T00:59:14.487Z,0.00
2018-04-11T01:00:14.416Z,0.00
2018-04-11T01:01:14.335Z,0.00
2018-04-11T01:02:14.256Z,0.00
2018-04-11T01:03:14.184Z,0.00
2018-04-11T01:04:14.104Z,0.00
2018-04-11T01:05:14.025Z,0.00
2018-04-11T01:06:13.957Z,0.00
2018-04-11T01:07:13.872Z,0.00
2018-04-11T01:08:13.794Z,0.00
2018-04-11T01:09:13.715Z,0.00
2018-04-11T01:10:13.639Z,0.00
2018-04-11T01:11:13.573Z,0.00
2018-04-11T01:12:13.495Z,0.00
2018-04-11T01:13:13.413Z,0.00
2018-04-11T01:14:13.331Z,0.00
2018-04-11T01:15:13.256Z,0.00
2018-04-11T01:16:13.178Z,0.00
2018-04-11T01:17:13.100Z,0.00
2018-04-11T01:18:13.024Z,0.00
2018-04-11T01:19:12.947Z,0.00
2018-04-11T01:20:12.872Z,0.00
2018-04-11T01:21:12.792Z,0.00
2018-04-11T01:22:12.739Z,0.00
2018-04-11T01:23:12.639Z,0.00
2018-04-11T01:24:12.563Z,0.00
2018-04-11T01:25:12.486Z,0.00
2018-04-11T01:26:12.409Z,0.00
2018-04-11T01:27:12.334Z,0.00
2018-04-11T01:28:12.257Z,0.00
2018-04-11T01:29:12.179Z,0.00
2018-04-11T01:30:12.126Z,0.00
2018-04-11T01:31:12.028Z,0.00
2018-04-11T01:32:11.950Z,0.00
2018-04-11T01:33:11.889Z,0.00
2018-04-11T01:34:11.798Z,0.00
2018-04-11T01:35:11.720Z,0.00
2018-04-11T01:36:11.654Z,0.00
2018-04-11T01:37:11.565Z,0.00
2018-04-11T01:38:11.515Z,0.00
2018-04-11T01:39:11.434Z,0.00
2018-04-11T01:40:11.335Z,0.00
2018-04-11T01:41:11.256Z,0.00
2018-04-11T01:42:11.182Z,0.00
2018-04-11T01:43:11.102Z,0.00
2018-04-11T01:44:11.046Z,0.00
2018-04-11T01:45:10.949Z,0.00
2018-04-11T01:46:10.873Z,0.00
2018-04-11T01:47:10.795Z,0.00
2018-04-11T01:48:10.719Z,0.00
2018-04-11T01:49:10.642Z,0.00
2018-04-11T01:50:10.566Z,0.00
2018-04-11T01:51:10.488Z,0.00
2018-04-11T01:52:10.411Z,0.00
2018-04-11T01:53:10.333Z,0.00
2018-04-11T01:54:10.266Z,0.00
2018-04-11T01:55:10.182Z,0.00
2018-04-11T01:56:10.105Z,0.00
2018-04-11T01:57:10.043Z,0.00
2018-04-11T01:58:09.950Z,0.00
2018-04-11T01:59:09.874Z,0.00
2018-04-11T02:00:09.799Z,0.00
2018-04-11T02:01:09.718Z,0.00
2018-04-11T02:02:09.642Z,0.00
2018-04-11T02:03:09.564Z,0.00
2018-04-11T02:04:09.489Z,0.00
2018-04-11T02:05:09.414Z,0.00
2018-04-11T02:06:09.335Z,0.00
2018-04-11T02:07:09.261Z,0.00
2018-04-11T02:08:09.182Z,0.00
2018-04-11T02:09:09.101Z,0.00
2018-04-11T02:10:09.026Z,0.00
2018-04-11T02:11:08.954Z,0.00
2018-04-11T02:12:08.877Z,0.00
2018-04-11T02:13:08.793Z,0.00
2018-04-11T02:14:08.717Z,0.00
2018-04-11T02:15:08.639Z,0.00
2018-04-11T02:16:08.577Z,0.00
2018-04-11T02:17:08.488Z,0.00
2018-04-11T02:18:08.406Z,0.00
2018-04-11T02:19:08.330Z,0.00
2018-04-11T02:20:08.260Z,0.00
2018-04-11T02:21:08.183Z,0.00
2018-04-11T02:22:08.110Z,0.00
2018-04-11T02:23:08.026Z,0.00
2018-04-11T02:24:07.947Z,0.00
2018-04-11T02:25:07.868Z,0.00
2018-04-11T02:26:07.790Z,0.00
2018-04-11T02:27:07.712Z,0.00
2018-04-11T02:28:07.634Z,0.00
2018-04-11T02:29:07.566Z,0.00
2018-04-11T02:30:07.482Z,0.00
2018-04-11T02:31:07.405Z,0.00
2018-04-11T02:32:07.354Z,0.00
2018-04-11T02:33:07.246Z,0.00
2018-04-11T02:34:07.171Z,0.00
2018-04-11T02:35:07.095Z,0.00
2018-04-11T02:36:07.024Z,0.00
2018-04-11T02:37:06.938Z,0.00
2018-04-11T02:38:06.859Z,0.00
2018-04-11T02:39:06.785Z,0.00
2018-04-11T02:40:06.708Z,0.00
2018-04-11T02:41:06.654Z,0.00
2018-04-11T02:42:06.553Z,0.00
2018-04-11T02:43:06.476Z,0.00
2018-04-11T02:44:06.417Z,0.00
2018-04-11T02:45:06.332Z,0.00
2018-04-11T02:46:06.242Z,0.00
2018-04-11T02:47:06.168Z,0.00
2018-04-11T02:48:06.090Z,0.00
2018-04-11T02:49:06.011Z,0.00
2018-04-11T02:50:05.934Z,0.00
2018-04-11T02:51:05.854Z,0.00
2018-04-11T02:52:05.786Z,0.00
2018-04-11T02:53:05.703Z,0.00
2018-04-11T02:54:05.629Z,0.00
2018-04-11T02:55:05.548Z,0.00
2018-04-11T02:56:05.473Z,0.00
2018-04-11T02:57:05.389Z,0.00
2018-04-11T02:58:05.316Z,0.00
2018-04-11T02:59:05.256Z,0.00
2018-04-11T03:00:05.161Z,0.00
2018-04-11T03:01:05.081Z,0.00
2018-04-11T03:02:05.004Z,0.00
2018-04-11T03:03:04.927Z,0.00
2018-04-11T03:04:04.852Z,0.00
2018-04-11T03:05:04.773Z,0.00
2018-04-11T03:06:04.697Z,0.00
2018-04-11T03:07:04.618Z,0.00
2018-04-11T03:08:04.541Z,0.00
2018-04-11T03:09:04.462Z,0.00
2018-04-11T03:10:04.387Z,0.00
2018-04-11T03:11:04.309Z,0.00
2018-04-11T03:12:04.238Z,0.00
2018-04-11T03:13:04.169Z,0.00
2018-04-11T03:14:04.079Z,0.00
2018-04-11T03:15:04.004Z,0.00
2018-04-11T03:16:03.950Z,0.00
2018-04-11T03:17:03.847Z,0.00
2018-04-11T03:18:03.770Z,0.00
2018-04-11T03:19:03.693Z,0.00
2018-04-11T03:20:03.617Z,0.00
2018-04-11T03:21:03.539Z,0.00
2018-04-11T03:22:03.460Z,0.00
2018-04-11T03:23:03.381Z,0.00
2018-04-11T03:24:03.306Z,0.00
2018-04-11T03:25:03.230Z,0.00
2018-04-11T03:26:03.150Z,0.00
2018-04-11T03:27:03.073Z,0.00
2018-04-11T03:28:02.994Z,0.00
2018-04-11T03:29:02.922Z,0.00
2018-04-11T03:30:02.840Z,0.00
2018-04-11T03:31:02.782Z,0.00
2018-04-11T03:32:02.686Z,0.00
2018-04-11T03:33:02.607Z,0.00
2018-04-11T03:34:02.530Z,0.00
2018-04-11T03:35:02.454Z,0.00
2018-04-11T03:36:02.377Z,0.00
2018-04-11T03:37:02.296Z,0.00
2018-04-11T03:38:02.218Z,0.00
2018-04-11T03:39:02.156Z,0.00
2018-04-11T03:40:02.067Z,0.00
2018-04-11T03:41:01.989Z,0.00
2018-04-11T03:42:01.922Z,0.00
2018-04-11T03:43:01.832Z,0.00
2018-04-11T03:44:01.756Z,0.00
2018-04-11T03:45:01.678Z,0.00
2018-04-11T03:46:01.597Z,0.00
2018-04-11T03:47:01.566Z,0.00
2018-04-11T03:48:01.445Z,0.00
2018-04-11T03:49:01.368Z,0.00
2018-04-11T03:50:01.300Z,0.00
2018-04-11T03:51:01.222Z,0.00
2018-04-11T03:52:01.134Z,0.00
2018-04-11T03:53:01.055Z,0.00
2018-04-11T03:54:00.982Z,0.00
2018-04-11T03:55:00.906Z,0.00
2018-04-11T03:56:00.825Z,0.00
2018-04-11T03:57:00.751Z,0.00
2018-04-11T03:58:00.666Z,0.00
2018-04-11T03:59:00.591Z,0.00
2018-04-11T04:00:00.518Z,0.00
2018-04-11T04:01:00.436Z,0.00
2018-04-11T04:02:00.360Z,0.00
2018-04-11T04:03:00.292Z,0.00
2018-04-11T04:04:00.203Z,0.00
2018-04-11T04:05:00.124Z,0.00
2018-04-11T04:06:00.048Z,0.00
2018-04-11T04:06:59.971Z,0.00
2018-04-11T04:07:59.898Z,0.00
2018-04-11T04:08:59.819Z,0.00
2018-04-11T04:09:59.773Z,0.00
2018-04-11T04:10:59.666Z,0.00
2018-04-11T04:11:59.585Z,0.00
2018-04-11T04:12:59.510Z,0.00
2018-04-11T04:13:59.523Z,0.00
2018-04-11T04:14:59.349Z,0.00
2018-04-11T04:15:59.285Z,0.00
2018-04-11T04:16:59.195Z,0.00
2018-04-11T04:17:59.119Z,0.00
2018-04-11T04:18:59.039Z,0.00
2018-04-11T04:19:58.963Z,0.00
2018-04-11T04:20:58.885Z,0.00
2018-04-11T04:21:58.809Z,0.00
2018-04-11T04:22:58.729Z,0.00
2018-04-11T04:23:58.656Z,0.00
2018-04-11T04:24:58.577Z,0.00
2018-04-11T04:25:58.498Z,0.00
2018-04-11T04:26:58.421Z,0.00
2018-04-11T04:27:58.341Z,0.00
2018-04-11T04:28:58.261Z,5.63
2018-04-11T04:29:58.186Z,5.63
2018-04-11T04:30:58.108Z,5.63
2018-04-11T04:31:58.079Z,5.63
2018-04-11T04:32:57.950Z,5.63
2018-04-11T04:33:57.874Z,5.63
2018-04-11T04:34:57.797Z,11.25
2018-04-11T04:35:57.758Z,11.25
2018-04-11T04:36:57.643Z,11.25
2018-04-11T04:37:57.563Z,11.25
2018-04-11T04:38:57.502Z,11.25
2018-04-11T04:39:57.410Z,16.88
2018-04-11T04:40:57.367Z,16.88
2018-04-11T04:41:57.258Z,16.88
2018-04-11T04:42:57.200Z,16.88
2018-04-11T04:43:57.097Z,22.50
2018-04-11T04:44:57.017Z,22.50
2018-04-11T04:45:56.939Z,22.50
2018-04-11T04:46:56.859Z,22.50
2018-04-11T04:47:56.785Z,22.50
2018-04-11T04:48:56.741Z,28.13
2018-04-11T04:49:56.627Z,28.13
2018-04-11T04:50:56.549Z,28.13
2018-04-11T04:51:56.473Z,33.75
2018-04-11T04:52:56.393Z,33.75
2018-04-11T04:53:56.317Z,33.75
2018-04-11T04:54:56.246Z,39.38
2018-04-11T04:55:56.159Z,39.38
2018-04-11T04:56:56.081Z,39.38
2018-04-11T04:57:56.004Z,45.00
2018-04-11T04:58:55.926Z,45.00
2018-04-11T04:59:55.846Z,45.00
2018-04-11T05:00:55.770Z,45.00
2018-04-11T05:01:55.691Z,45.00
2018-04-11T05:02:55.613Z,50.63
2018-04-11T05:03:55.536Z,50.63
2018-04-11T05:04:55.457Z,50.63
2018-04-11T05:05:55.381Z,50.63
2018-04-11T05:06:55.304Z,56.25
2018-04-11T05:07:55.227Z,56.25
2018-04-11T05:08:55.152Z,56.25
2018-04-11T05:09:55.067Z,56.25
2018-04-11T05:10:54.990Z,61.88
2018-04-11T05:11:54.914Z,61.88
2018-04-11T05:12:54.834Z,61.88
2018-04-11T05:13:54.759Z,67.50
2018-04-11T05:14:54.679Z,67.50
2018-04-11T05:15:54.599Z,67.50
2018-04-11T05:16:54.523Z,67.50
2018-04-11T05:17:54.445Z,73.13
2018-04-11T05:18:54.365Z,73.13
2018-04-11T05:19:54.291Z,73.13
2018-04-11T05:20:54.215Z,78.75
2018-04-11T05:21:54.132Z,78.75
2018-04-11T05:22:54.057Z,78.75
2018-04-11T05:23:53.991Z,56.25
2018-04-11T05:24:53.898Z,78.75
2018-04-11T05:25:53.818Z,78.75
2018-04-11T05:26:53.741Z,84.38
2018-04-11T05:27:53.667Z,84.38
2018-04-11T05:28:53.588Z,84.38
2018-04-11T05:29:53.508Z,90.00
2018-04-11T05:30:53.433Z,90.00
2018-04-11T05:31:53.359Z,90.00
2018-04-11T05:32:53.273Z,90.00
2018-04-11T05:33:53.196Z,95.63
2018-04-11T05:34:53.120Z,95.63
2018-04-11T05:35:53.042Z,101.25
2018-04-11T05:36:52.965Z,101.25
2018-04-11T05:37:52.930Z,101.25
2018-04-11T05:38:52.807Z,106.88
2018-04-11T05:39:52.734Z,106.88
2018-04-11T05:40:52.655Z,106.88
2018-04-11T05:41:52.572Z,106.88
2018-04-11T05:42:52.497Z,106.88
2018-04-11T05:43:52.420Z,112.50
2018-04-11T05:44:52.340Z,112.50
2018-04-11T05:45:52.264Z,112.50
2018-04-11T05:46:52.217Z,112.50
2018-04-11T05:47:52.113Z,112.50
2018-04-11T05:48:52.031Z,112.50
2018-04-11T05:49:51.954Z,118.13
2018-04-11T05:50:51.882Z,118.13
2018-04-11T05:51:51.814Z,118.13
2018-04-11T05:52:51.727Z,118.13
2018-04-11T05:53:51.642Z,123.75
2018-04-11T05:54:51.564Z,123.75
2018-04-11T05:55:51.496Z,123.75
2018-04-11T05:56:51.411Z,123.75
2018-04-11T05:57:51.338Z,129.38
2018-04-11T05:58:51.289Z,129.38
2018-04-11T05:59:51.179Z,129.38
2018-04-11T06:00:51.140Z,129.38
2018-04-11T06:01:51.022Z,129.38
2018-04-11T06:02:50.944Z,129.38
2018-04-11T06:03:50.868Z,135.00
2018-04-11T06:04:50.804Z,129.38
2018-04-11T06:05:50.712Z,129.38
2018-04-11T06:06:50.689Z,118.13
2018-04-11T06:07:50.564Z,106.88
2018-04-11T06:08:50.479Z,106.88
2018-04-11T06:09:50.414Z,101.25
2018-04-11T06:10:50.329Z,112.50
2018-04-11T06:11:50.247Z,118.13
2018-04-11T06:12:50.174Z,135.00
2018-04-11T06:13:50.094Z,146.25
2018-04-11T06:14:50.020Z,146.25
2018-04-11T06:15:49.982Z,151.88
2018-04-11T06:16:49.862Z,140.63
2018-04-11T06:17:49.813Z,135.00
2018-04-11T06:18:49.718Z,135.00
2018-04-11T06:19:49.646Z,135.00
2018-04-11T06:20:49.554Z,135.00
2018-04-11T06:21:49.474Z,140.63
2018-04-11T06:22:49.458Z,151.88
2018-04-11T06:23:49.375Z,146.25
2018-04-11T06:24:49.245Z,163.13
2018-04-11T06:25:49.175Z,168.75
2018-04-11T06:26:49.091Z,174.38
2018-04-11T06:27:49.017Z,185.63
2018-04-11T06:28:48.961Z,180.00
2018-04-11T06:29:48.897Z,180.00
2018-04-11T06:30:48.786Z,168.75
2018-04-11T06:31:48.724Z,174.38
2018-04-11T06:32:48.636Z,185.63
2018-04-11T06:33:48.605Z,180.00
2018-04-11T06:34:48.474Z,180.00
2018-04-11T06:35:48.400Z,157.50
2018-04-11T06:36:48.323Z,174.38
2018-04-11T06:37:48.246Z,174.38
2018-04-11T06:38:48.173Z,168.75
2018-04-11T06:39:48.092Z,174.38
2018-04-11T06:40:48.017Z,151.88
2018-04-11T06:41:47.941Z,135.00
2018-04-11T06:42:47.886Z,129.38
2018-04-11T06:43:47.800Z,135.00
2018-04-11T06:44:47.712Z,129.38
2018-04-11T06:45:47.633Z,123.75
2018-04-11T06:46:47.555Z,123.75
2018-04-11T06:47:47.530Z,123.75
2018-04-11T06:48:47.415Z,118.13
2018-04-11T06:49:47.330Z,118.13
2018-04-11T06:50:47.250Z,112.50
2018-04-11T06:51:47.175Z,112.50
2018-04-11T06:52:47.096Z,118.13
2018-04-11T06:53:47.036Z,151.88
2018-04-11T06:54:46.947Z,174.38
2018-04-11T06:55:46.868Z,174.38
2018-04-11T06:56:46.791Z,174.38
2018-04-11T06:57:46.757Z,174.38
2018-04-11T06:58:46.647Z,174.38
2018-04-11T06:59:46.560Z,174.38
2018-04-11T07:00:46.483Z,174.38
2018-04-11T07:01:46.467Z,174.38
2018-04-11T07:02:46.333Z,174.38
2018-04-11T07:03:46.260Z,174.38
2018-04-11T07:04:46.194Z,174.38
2018-04-11T07:05:46.107Z,174.38
2018-04-11T07:06:46.025Z,174.38
2018-04-11T07:07:45.952Z,174.38
2018-04-11T07:08:45.876Z,180.00
2018-04-11T07:09:45.800Z,174.38
2018-04-11T07:10:45.720Z,174.38
2018-04-11T07:11:45.646Z,174.38
2018-04-11T07:12:45.573Z,168.75
2018-04-11T07:13:45.496Z,168.75
2018-04-11T07:14:45.421Z,174.38
2018-04-11T07:15:45.355Z,174.38
2018-04-11T07:16:45.264Z,174.38
2018-04-11T07:17:45.189Z,174.38
2018-04-11T07:18:45.110Z,174.38
2018-04-11T07:19:45.037Z,174.38
2018-04-11T07:20:44.960Z,174.38
2018-04-11T07:21:44.885Z,174.38
2018-04-11T07:22:44.813Z,174.38
2018-04-11T07:23:44.750Z,180.00
2018-04-11T07:24:44.659Z,180.00
2018-04-11T07:25:44.581Z,180.00
2018-04-11T07:26:44.503Z,180.00
2018-04-11T07:27:44.427Z,180.00
2018-04-11T07:28:44.349Z,180.00
2018-04-11T07:29:44.280Z,180.00
2018-04-11T07:30:44.202Z,185.63
2018-04-11T07:31:44.122Z,185.63
2018-04-11T07:32:44.044Z,185.63
2018-04-11T07:33:44.001Z,185.63
2018-04-11T07:34:43.899Z,185.63
2018-04-11T07:35:43.822Z,191.25
2018-04-11T07:36:43.742Z,185.63
2018-04-11T07:37:43.669Z,185.63
2018-04-11T07:38:43.600Z,174.38
2018-04-11T07:39:43.522Z,163.13
2018-04-11T07:40:43.438Z,185.63
2018-04-11T07:41:43.361Z,185.63
2018-04-11T07:42:43.292Z,185.63
2018-04-11T07:43:43.210Z,185.63
2018-04-11T07:44:43.137Z,191.25
2018-04-11T07:45:43.060Z,191.25
2018-04-11T07:46:42.983Z,191.25
2018-04-11T07:47:42.908Z,191.25
2018-04-11T07:48:42.836Z,191.25
2018-04-11T07:49:42.757Z,191.25
2018-04-11T07:50:42.680Z,196.88
2018-04-11T07:51:42.619Z,191.25
2018-04-11T07:52:42.533Z,191.25
2018-04-11T07:53:42.457Z,185.63
2018-04-11T07:54:42.379Z,185.63
2018-04-11T07:55:42.303Z,185.63
2018-04-11T07:56:42.227Z,185.63
2018-04-11T07:57:42.149Z,185.63
2018-04-11T07:58:42.076Z,185.63
2018-04-11T07:59:41.999Z,185.63
2018-04-11T08:00:41.940Z,185.63
2018-04-11T08:01:41.848Z,185.63
2018-04-11T08:02:41.774Z,185.63
2018-04-11T08:03:41.697Z,185.63
2018-04-11T08:04:41.624Z,185.63
2018-04-11T08:05:41.555Z,185.63
2018-04-11T08:06:41.471Z,185.63
2018-04-11T08:07:41.395Z,185.63
2018-04-11T08:08:41.320Z,185.63
2018-04-11T08:09:41.245Z,185.63
2018-04-11T08:10:41.166Z,185.63
2018-04-11T08:11:41.091Z,185.63
2018-04-11T08:12:41.015Z,185.63
2018-04-11T08:13:40.941Z,185.63
2018-04-11T08:14:40.868Z,185.63
2018-04-11T08:15:40.792Z,185.63
2018-04-11T08:16:40.716Z,185.63
2018-04-11T08:17:40.641Z,185.63
2018-04-11T08:18:40.562Z,185.63
2018-04-11T08:19:40.489Z,185.63
2018-04-11T08:20:40.416Z,180.00
2018-04-11T08:21:40.336Z,185.63
2018-04-11T08:22:40.259Z,180.00
2018-04-11T08:23:40.186Z,180.00
2018-04-11T08:24:40.114Z,185.63
2018-04-11T08:25:40.046Z,185.63
2018-04-11T08:26:39.961Z,185.63
2018-04-11T08:27:39.885Z,185.63
2018-04-11T08:28:39.810Z,185.63
2018-04-11T08:29:39.734Z,185.63
2018-04-11T08:30:39.659Z,185.63
2018-04-11T08:31:39.583Z,185.63
2018-04-11T08:32:39.508Z,185.63
2018-04-11T08:33:39.442Z,185.63
2018-04-11T08:34:39.357Z,185.63
2018-04-11T08:35:39.280Z,185.63
2018-04-11T08:36:39.204Z,185.63
2018-04-11T08:37:39.129Z,185.63
2018-04-11T08:38:39.058Z,191.25
2018-04-11T08:39:38.981Z,185.63
2018-04-11T08:40:38.905Z,185.63
2018-04-11T08:41:38.827Z,191.25
2018-04-11T08:42:38.764Z,185.63
2018-04-11T08:43:38.677Z,185.63
2018-04-11T08:44:38.601Z,185.63
2018-04-11T08:45:38.529Z,191.25
2018-04-11T08:46:38.450Z,185.63
2018-04-11T08:47:38.380Z,185.63
2018-04-11T08:48:38.303Z,185.63
2018-04-11T08:49:38.228Z,191.25
2018-04-11T08:50:38.152Z,174.38
2018-04-11T08:51:38.076Z,185.63
2018-04-11T08:52:38.000Z,185.63
2018-04-11T08:53:37.935Z,185.63
2018-04-11T08:54:37.854Z,185.63
2018-04-11T08:55:37.777Z,185.63
2018-04-11T08:56:37.704Z,185.63
2018-04-11T08:57:38.001Z,185.63
2018-04-11T08:58:37.549Z,185.63
2018-04-11T08:59:37.472Z,185.63
2018-04-11T09:00:37.401Z,185.63
2018-04-11T09:01:37.322Z,185.63
2018-04-11T09:02:37.252Z,185.63
2018-04-11T09:03:37.176Z,191.25
2018-04-11T09:04:37.483Z,191.25
2018-04-11T09:05:37.082Z,191.25
2018-04-11T09:06:36.949Z,191.25
2018-04-11T09:07:36.872Z,196.88
2018-04-11T09:08:36.799Z,208.13
2018-04-11T09:09:36.722Z,213.75
2018-04-11T09:10:36.650Z,213.75
2018-04-11T09:11:36.574Z,213.75
2018-04-11T09:12:36.500Z,219.38
2018-04-11T09:13:36.426Z,219.38
2018-04-11T09:14:36.348Z,225.00
2018-04-11T09:15:36.276Z,230.63
2018-04-11T09:16:36.200Z,236.25
2018-04-11T09:17:36.161Z,236.25
2018-04-11T09:18:36.052Z,241.88
2018-04-11T09:19:36.007Z,247.50
2018-04-11T09:20:35.900Z,241.88
2018-04-11T09:21:35.825Z,247.50
2018-04-11T09:22:35.753Z,253.13
2018-04-11T09:23:35.679Z,253.13
2018-04-11T09:24:35.607Z,258.75
2018-04-11T09:25:35.529Z,264.38
2018-04-11T09:26:35.461Z,270.00
2018-04-11T09:27:35.995Z,270.00
2018-04-11T09:28:35.314Z,247.50
2018-04-11T09:29:35.230Z,230.63
2018-04-11T09:30:35.171Z,270.00
2018-04-11T09:31:35.110Z,270.00
2018-04-11T09:32:35.010Z,264.38
2018-04-11T09:33:34.943Z,270.00
2018-04-11T09:34:34.861Z,264.38
2018-04-11T09:35:34.788Z,258.75
2018-04-11T09:36:34.717Z,253.13
2018-04-11T09:37:34.671Z,253.13
2018-04-11T09:38:34.633Z,253.13
2018-04-11T09:39:34.492Z,253.13
2018-04-11T09:40:34.416Z,247.50
2018-04-11T09:41:34.344Z,247.50
2018-04-11T09:42:34.281Z,241.88
2018-04-11T09:43:34.197Z,247.50
2018-04-11T09:44:34.121Z,247.50
2018-04-11T09:45:34.048Z,247.50
2018-04-11T09:46:33.977Z,247.50
2018-04-11T09:47:33.904Z,253.13
2018-04-11T09:48:33.825Z,253.13
2018-04-11T09:49:33.756Z,253.13
2018-04-11T09:50:33.681Z,258.75
2018-04-11T09:51:33.608Z,270.00
2018-04-11T09:52:33.531Z,275.63
2018-04-11T09:53:33.459Z,286.88
2018-04-11T09:54:33.386Z,298.13
2018-04-11T09:55:33.313Z,298.13
2018-04-11T09:56:33.274Z,303.75
2018-04-11T09:57:33.165Z,298.13
2018-04-11T09:58:33.091Z,303.75
2018-04-11T09:59:33.016Z,331.88
2018-04-11T10:00:32.942Z,331.88
2018-04-11T10:01:32.875Z,348.75
2018-04-11T10:02:32.828Z,343.13
2018-04-11T10:03:32.726Z,320.63
2018-04-11T10:04:32.649Z,337.50
2018-04-11T10:05:32.577Z,354.38
2018-04-11T10:06:32.503Z,371.25
2018-04-11T10:07:32.427Z,354.38
2018-04-11T10:08:32.362Z,360.00
2018-04-11T10:09:32.283Z,354.38
2018-04-11T10:10:32.218Z,348.75
2018-04-11T10:11:32.138Z,331.88
2018-04-11T10:12:32.059Z,320.63
2018-04-11T10:13:32.046Z,303.75
2018-04-11T10:14:31.923Z,303.75
2018-04-11T10:15:31.841Z,309.38
2018-04-11T10:16:31.767Z,331.88
2018-04-11T10:17:31.693Z,331.88
2018-04-11T10:18:31.623Z,360.00
2018-04-11T10:19:31.546Z,376.88
2018-04-11T10:20:31.476Z,371.25
2018-04-11T10:21:31.403Z,376.88
2018-04-11T10:22:31.326Z,376.88
2018-04-11T10:23:31.261Z,382.50
2018-04-11T10:24:31.179Z,405.00
2018-04-11T10:25:31.107Z,416.25
2018-04-11T10:26:31.039Z,416.25
2018-04-11T10:27:30.968Z,416.25
2018-04-11T10:28:30.891Z,421.88
2018-04-11T10:29:30.816Z,427.50
2018-04-11T10:30:30.745Z,416.25
2018-04-11T10:31:30.669Z,405.00
2018-04-11T10:32:30.605Z,416.25
2018-04-11T10:33:30.525Z,427.50
2018-04-11T10:34:30.455Z,455.63
2018-04-11T10:35:30.382Z,489.38
2018-04-11T10:36:30.306Z,371.25
2018-04-11T10:37:30.242Z,371.25
2018-04-11T10:38:30.162Z,388.13
2018-04-11T10:39:30.091Z,444.38
2018-04-11T10:40:30.017Z,410.63
2018-04-11T10:41:29.977Z,326.25
2018-04-11T10:42:29.875Z,399.38
2018-04-11T10:43:29.814Z,399.38
2018-04-11T10:44:29.728Z,433.13
2018-04-11T10:45:29.661Z,337.50
2018-04-11T10:46:29.585Z,360.00
2018-04-11T10:47:29.513Z,354.38
2018-04-11T10:48:29.441Z,354.38
2018-04-11T10:49:29.368Z,376.88
2018-04-11T10:50:29.295Z,354.38
2018-04-11T10:51:29.229Z,365.63
2018-04-11T10:52:29.159Z,360.00
2018-04-11T10:53:29.081Z,360.00
2018-04-11T10:54:29.007Z,382.50
2018-04-11T10:55:28.936Z,382.50
2018-04-11T10:56:28.868Z,365.63
2018-04-11T10:57:28.795Z,360.00
2018-04-11T10:58:28.722Z,360.00
2018-04-11T10:59:28.679Z,354.38
2018-04-11T11:00:28.574Z,343.13
2018-04-11T11:01:28.509Z,343.13
2018-04-11T11:02:28.435Z,343.13
2018-04-11T11:03:28.360Z,348.75
2018-04-11T11:04:28.287Z,466.88
2018-04-11T11:05:28.232Z,466.88
2018-04-11T11:06:28.145Z,478.13
2018-04-11T11:07:28.072Z,360.00
2018-04-11T11:08:27.999Z,343.13
2018-04-11T11:09:27.928Z,331.88
2018-04-11T11:10:27.857Z,343.13
2018-04-11T11:11:27.788Z,371.25
2018-04-11T11:12:27.714Z,410.63
2018-04-11T11:13:27.643Z,540.00
2018-04-11T11:14:27.588Z,523.13
2018-04-11T11:15:27.499Z,461.25
2018-04-11T11:16:27.443Z,523.13
2018-04-11T11:17:27.354Z,511.88
2018-04-11T11:18:27.283Z,511.88
2018-04-11T11:19:27.216Z,556.88
2018-04-11T11:20:27.144Z,596.25
2018-04-11T11:21:27.070Z,433.13
2018-04-11T11:22:26.997Z,393.75
2018-04-11T11:23:26.931Z,376.88
2018-04-11T11:24:26.859Z,388.13
2018-04-11T11:25:26.784Z,438.75
2018-04-11T11:26:26.714Z,466.88
2018-04-11T11:27:26.648Z,438.75
2018-04-11T11:28:26.572Z,388.13
2018-04-11T11:29:26.501Z,365.63
2018-04-11T11:30:26.432Z,365.63
2018-04-11T11:31:26.359Z,382.50
2018-04-11T11:32:26.288Z,416.25
2018-04-11T11:33:26.215Z,568.13
2018-04-11T11:34:26.146Z,517.50
2018-04-11T11:35:26.078Z,455.63
2018-04-11T11:36:26.003Z,444.38
2018-04-11T11:37:25.946Z,466.88
2018-04-11T11:38:25.859Z,607.50
2018-04-11T11:39:25.868Z,641.25
2018-04-11T11:40:25.768Z,646.88
2018-04-11T11:41:25.686Z,624.38
2018-04-11T11:42:25.621Z,635.63
2018-04-11T11:43:25.511Z,624.38
2018-04-11T11:44:25.435Z,630.00
2018-04-11T11:45:25.436Z,635.63
2018-04-11T11:46:25.361Z,630.00
2018-04-11T11:47:25.292Z,630.00
2018-04-11T11:48:25.177Z,624.38
2018-04-11T11:49:25.083Z,624.38
2018-04-11T11:50:25.014Z,568.13
2018-04-11T11:51:24.944Z,545.63
2018-04-11T11:52:24.880Z,545.63
2018-04-11T11:53:24.844Z,551.25
2018-04-11T11:54:24.738Z,562.50
2018-04-11T11:55:24.666Z,579.38
2018-04-11T11:56:24.599Z,624.38
2018-04-11T11:57:24.574Z,686.25
2018-04-11T11:58:24.459Z,697.50
2018-04-11T11:59:24.390Z,871.88
2018-04-11T12:00:24.322Z,450.00
2018-04-11T12:01:24.254Z,461.25
2018-04-11T12:02:24.224Z,450.00
2018-04-11T12:03:24.122Z,433.13
2018-04-11T12:04:24.059Z,416.25
2018-04-11T12:05:23.999Z,399.38
2018-04-11T12:06:23.917Z,455.63
2018-04-11T12:07:23.848Z,3808.13
2018-04-11T12:08:23.781Z,4055.63
2018-04-11T12:09:23.717Z,4635.00
2018-04-11T12:10:23.656Z,4882.50
2018-04-11T12:11:23.585Z,5197.50
2018-04-11T12:12:23.517Z,3161.25
2018-04-11T12:13:23.457Z,511.88
2018-04-11T12:14:23.383Z,2576.25
2018-04-11T12:15:23.319Z,855.00
2018-04-11T12:16:23.254Z,5670.00
2018-04-11T12:17:23.206Z,5580.00
2018-04-11T12:18:23.135Z,5450.63
2018-04-11T12:19:23.069Z,4950.00
2018-04-11T12:20:23.000Z,4713.75
2018-04-11T12:21:22.953Z,5045.63
2018-04-11T12:22:22.877Z,5377.50
2018-04-11T12:23:22.817Z,5394.38
2018-04-11T12:24:22.753Z,5574.38
2018-04-11T12:25:22.694Z,6018.75
2018-04-11T12:26:22.633Z,6153.75
2018-04-11T12:27:22.579Z,6255.00
2018-04-11T12:28:22.515Z,6024.38
2018-04-11T12:29:22.457Z,5743.13
2018-04-11T12:30:22.414Z,5653.13
2018-04-11T12:31:22.423Z,5349.38
2018-04-11T12:32:22.299Z,5056.88
2018-04-11T12:33:22.224Z,5056.88
2018-04-11T12:34:22.174Z,5405.63
2018-04-11T12:35:22.118Z,5709.38
2018-04-11T12:36:22.056Z,5698.13
2018-04-11T12:37:22.043Z,5473.13
2018-04-11T12:38:21.945Z,5405.63
2018-04-11T12:39:21.911Z,5709.38
2018-04-11T12:40:21.834Z,6041.25
2018-04-11T12:41:21.781Z,472.50
2018-04-11T12:42:21.726Z,5535.00
2018-04-11T12:43:21.674Z,5951.25
2018-04-11T12:44:21.616Z,5771.25
2018-04-11T12:45:21.573Z,5630.63